Time;durP1;ratioP1;P1;durP2;ratioP2;P2;SDS_P1;SDS_P2;PMS_P1;PMS_P2;Temp;Humidity;BMP_temperature;BMP_pressure;BME280_temperature;BME280_humidity;BME280_pressure;Samples;Min_cycle;Max_cycle;Signal;HPM_P1;HPM_P2
2024/02/22 00:02:08;;;;;;;2.70;2.50;;;11.80;32.90;;;;;;10442238;28;20221;-77
2024/02/22 00:07:14;;;;;;;4.10;2.83;;;11.90;33.10;;;;;;10440265;28;20221;-76
2024/02/22 00:12:17;;;;;;;2.13;2.00;;;12.00;33.20;;;;;;10442587;28;20224;-76
2024/02/22 00:17:23;;;;;;;1.80;1.70;;;12.10;33.00;;;;;;10443093;28;20308;-76
2024/02/22 00:22:27;;;;;;;1.50;1.40;;;12.20;33.00;;;;;;10442344;28;20316;-76
2024/02/22 00:27:31;;;;;;;1.27;1.17;;;12.40;33.00;;;;;;10443454;28;20244;-76
2024/02/22 00:32:36;;;;;;;1.47;1.37;;;12.60;32.80;;;;;;10445041;28;20237;-77
2024/02/22 00:37:39;;;;;;;1.07;1.03;;;12.80;32.40;;;;;;10442695;28;20604;-76
2024/02/22 00:42:43;;;;;;;1.37;1.17;;;13.00;32.50;;;;;;10441127;28;20228;-76
2024/02/22 00:47:47;;;;;;;1.10;1.00;;;13.20;32.30;;;;;;10444419;28;20255;-76
2024/02/22 00:52:51;;;;;;;1.03;1.03;;;13.40;30.70;;;;;;10439828;28;20749;-76
2024/02/22 00:57:55;;;;;;;1.33;0.97;;;13.60;31.50;;;;;;10442511;28;20264;-76
2024/02/22 01:02:59;;;;;;;0.90;0.90;;;13.90;31.10;;;;;;10437265;28;20249;-76
2024/02/22 01:08:03;;;;;;;0.80;0.80;;;14.10;30.80;;;;;;10440007;28;20221;-76
2024/02/22 01:13:08;;;;;;;1.53;1.10;;;14.40;31.20;;;;;;10438870;28;20561;-76
2024/02/22 01:18:13;;;;;;;1.17;1.10;;;14.50;31.10;;;;;;10441928;28;20715;-76
2024/02/22 01:23:16;;;;;;;1.70;1.10;;;14.70;30.10;;;;;;10441964;28;20583;-76
2024/02/22 01:28:20;;;;;;;1.13;1.10;;;14.80;30.20;;;;;;10442794;28;20232;-76
2024/02/22 01:33:24;;;;;;;1.17;0.90;;;14.90;30.00;;;;;;10437113;28;20704;-76
2024/02/22 01:38:28;;;;;;;1.10;1.00;;;15.00;29.50;;;;;;10438527;28;20304;-76
2024/02/22 01:43:31;;;;;;;1.00;1.00;;;15.00;29.60;;;;;;10438443;28;20229;-76
2024/02/22 01:48:36;;;;;;;1.20;1.10;;;15.10;29.70;;;;;;10439855;28;20306;-77
2024/02/22 01:53:40;;;;;;;1.20;1.10;;;15.10;29.40;;;;;;10437571;28;20233;-76
2024/02/22 01:58:45;;;;;;;1.47;1.10;;;15.10;29.10;;;;;;10440488;28;20243;-76
2024/02/22 02:03:51;;;;;;;1.03;1.00;;;15.20;29.20;;;;;;10433966;28;20252;-76
2024/02/22 02:08:55;;;;;;;1.43;0.90;;;15.20;28.80;;;;;;10435920;28;20785;-76
2024/02/22 02:13:58;;;;;;;1.40;1.30;;;15.30;29.10;;;;;;10439449;28;20583;-76
2024/02/22 02:19:07;;;;;;;1.60;1.20;;;15.40;29.10;;;;;;10435006;28;20323;-77
2024/02/22 02:24:30;;;;;;;1.07;1.00;;;15.40;28.40;;;;;;10441839;28;20249;-76
2024/02/22 02:29:35;;;;;;;1.70;1.10;;;15.40;28.40;;;;;;10436621;28;20225;-76
2024/02/22 02:34:38;;;;;;;3.00;1.20;;;15.40;28.30;;;;;;10437144;28;20232;-77
2024/02/22 02:39:42;;;;;;;1.73;1.07;;;15.40;28.30;;;;;;10438506;28;20286;-76
2024/02/22 02:44:47;;;;;;;2.67;1.50;;;15.50;28.00;;;;;;10441831;28;20233;-73
2024/02/22 02:49:51;;;;;;;1.07;1.03;;;15.50;27.90;;;;;;10450315;28;20236;-74
2024/02/22 02:54:54;;;;;;;1.40;1.30;;;15.50;28.20;;;;;;10444176;28;20313;-74
2024/02/22 02:59:59;;;;;;;1.37;1.27;;;15.60;28.00;;;;;;10448088;28;20239;-74
2024/02/22 03:05:02;;;;;;;1.17;1.17;;;15.60;27.90;;;;;;10443960;28;20718;-74
2024/02/22 03:10:06;;;;;;;1.20;1.07;;;15.70;28.20;;;;;;10447162;28;20225;-74
2024/02/22 03:15:11;;;;;;;1.30;1.20;;;15.70;28.30;;;;;;10443420;28;20227;-73
2024/02/22 03:20:17;;;;;;;1.47;1.20;;;15.60;28.10;;;;;;10442285;28;20231;-72
2024/02/22 03:25:20;;;;;;;1.67;1.57;;;15.50;28.30;;;;;;10444529;28;20848;-74
2024/02/22 03:30:25;;;;;;;1.70;1.50;;;15.40;28.50;;;;;;10445768;28;20598;-73
2024/02/22 03:35:29;;;;;;;1.50;1.40;;;15.40;28.20;;;;;;10447090;28;20233;-73
2024/02/22 03:40:33;;;;;;;3.53;2.10;;;15.30;28.40;;;;;;10439038;28;20316;-73
2024/02/22 03:45:37;;;;;;;2.13;1.93;;;15.30;28.20;;;;;;10433991;28;20232;-73
2024/02/22 03:50:43;;;;;;;1.63;1.53;;;15.30;28.10;;;;;;10446200;28;20316;-73
2024/02/22 03:55:46;;;;;;;2.10;1.40;;;15.20;28.10;;;;;;10444291;28;20241;-73
2024/02/22 04:00:50;;;;;;;2.87;1.70;;;15.30;28.30;;;;;;10444176;28;20237;-73
2024/02/22 04:05:54;;;;;;;1.80;1.70;;;15.30;28.20;;;;;;10443588;28;20225;-73
2024/02/22 04:10:57;;;;;;;2.30;1.63;;;15.30;28.10;;;;;;10438382;28;20247;-73
2024/02/22 04:16:02;;;;;;;1.40;1.30;;;15.40;28.40;;;;;;10439387;28;20571;-73
2024/02/22 04:21:05;;;;;;;1.50;1.40;;;15.40;28.40;;;;;;10438501;28;20229;-73
2024/02/22 04:26:09;;;;;;;2.40;1.50;;;15.40;28.80;;;;;;10446711;28;20840;-73
2024/02/22 04:31:13;;;;;;;1.50;1.40;;;15.30;29.30;;;;;;10445687;28;20268;-73
2024/02/22 04:36:16;;;;;;;1.20;1.10;;;15.10;29.70;;;;;;10438852;28;20229;-73
2024/02/22 04:41:22;;;;;;;2.80;1.37;;;14.80;29.90;;;;;;10440315;28;20340;-74
2024/02/22 04:46:27;;;;;;;1.30;1.17;;;14.50;30.40;;;;;;10437461;28;20287;-73
2024/02/22 04:51:30;;;;;;;2.33;1.40;;;14.30;30.90;;;;;;10443300;28;20319;-74
2024/02/22 04:56:34;;;;;;;1.30;1.20;;;14.10;31.00;;;;;;10444240;28;20236;-74
2024/02/22 05:01:39;;;;;;;2.07;1.50;;;13.90;31.10;;;;;;10435994;28;20339;-73
2024/02/22 05:06:45;;;;;;;1.40;1.20;;;13.80;31.10;;;;;;10437249;28;20247;-74
2024/02/22 05:11:48;;;;;;;1.43;1.33;;;13.70;31.00;;;;;;10441625;28;20355;-73
2024/02/22 05:16:53;;;;;;;1.30;1.20;;;13.70;32.10;;;;;;10440134;28;20273;-73
2024/02/22 05:21:56;;;;;;;1.63;1.50;;;13.70;32.00;;;;;;10442427;28;20271;-74
2024/02/22 05:27:00;;;;;;;1.40;1.30;;;13.70;31.80;;;;;;10445711;28;20348;-74
2024/02/22 05:32:06;;;;;;;1.57;1.47;;;13.60;32.00;;;;;;10439927;28;20241;-73
2024/02/22 05:37:11;;;;;;;1.50;1.40;;;13.50;32.50;;;;;;10440218;28;20236;-74
2024/02/22 05:42:15;;;;;;;1.67;1.57;;;13.40;32.20;;;;;;10442608;28;20316;-73
2024/02/22 05:47:19;;;;;;;1.60;1.50;;;13.40;32.40;;;;;;10435143;28;20241;-74
2024/02/22 05:52:22;;;;;;;1.50;1.40;;;13.30;33.00;;;;;;10439660;28;20703;-74
2024/02/22 05:57:26;;;;;;;2.17;1.97;;;13.30;33.00;;;;;;10437500;28;20732;-75
2024/02/22 06:02:32;;;;;;;1.80;1.70;;;13.20;33.30;;;;;;10443127;28;20350;-73
2024/02/22 06:07:36;;;;;;;2.23;2.03;;;13.10;33.90;;;;;;10447091;28;20279;-73
2024/02/22 06:12:40;;;;;;;1.57;1.40;;;13.00;33.70;;;;;;10446822;28;20312;-73
2024/02/22 06:17:45;;;;;;;1.40;1.30;;;12.90;34.00;;;;;;10446729;28;20237;-73
2024/02/22 06:22:48;;;;;;;1.60;1.50;;;12.80;34.90;;;;;;10438205;28;20233;-73
2024/02/22 06:27:52;;;;;;;1.43;1.33;;;12.70;34.90;;;;;;10438759;28;20231;-75
2024/02/22 06:32:57;;;;;;;1.50;1.40;;;12.60;34.90;;;;;;10443043;28;20239;-74
2024/02/22 06:38:00;;;;;;;1.53;1.40;;;12.60;35.70;;;;;;10445786;28;20217;-74
2024/02/22 06:43:05;;;;;;;2.40;1.70;;;12.50;35.40;;;;;;10445168;28;20233;-74
2024/02/22 06:48:09;;;;;;;3.07;1.73;;;12.50;35.60;;;;;;10444580;28;20239;-74
2024/02/22 06:53:13;;;;;;;1.83;1.70;;;12.40;36.00;;;;;;10437183;28;20213;-74
2024/02/22 06:58:17;;;;;;;1.87;1.77;;;12.30;35.90;;;;;;10439898;28;20229;-75
2024/02/22 07:03:21;;;;;;;2.13;1.87;;;12.30;36.00;;;;;;10434393;28;20239;-74
2024/02/22 07:08:25;;;;;;;1.80;1.70;;;12.20;36.90;;;;;;10434254;28;20233;-73
2024/02/22 07:13:28;;;;;;;1.60;1.50;;;12.20;36.30;;;;;;10439025;28;20277;-75
2024/02/22 07:18:33;;;;;;;2.20;2.00;;;12.20;36.70;;;;;;10427988;28;21021;-74
2024/02/22 07:23:37;;;;;;;2.13;1.93;;;12.20;37.30;;;;;;10425426;28;20328;-74
2024/02/22 07:28:40;;;;;;;1.50;1.40;;;12.10;37.60;;;;;;10432730;28;20221;-74
2024/02/22 07:33:45;;;;;;;1.10;1.10;;;12.10;37.30;;;;;;10435467;28;20282;-74
2024/02/22 07:38:48;;;;;;;1.47;1.20;;;12.10;37.90;;;;;;10443631;28;20322;-74
2024/02/22 07:43:51;;;;;;;1.80;1.17;;;12.10;37.60;;;;;;10441185;28;20253;-74
2024/02/22 07:48:56;;;;;;;2.23;1.30;;;12.10;37.50;;;;;;10439237;28;20236;-74
2024/02/22 07:54:00;;;;;;;1.60;1.50;;;12.10;38.40;;;;;;10441462;28;20287;-74
2024/02/22 07:59:03;;;;;;;1.93;1.67;;;12.10;38.00;;;;;;10441997;28;20221;-75
2024/02/22 08:04:08;;;;;;;1.40;1.30;;;12.00;38.80;;;;;;10441721;28;20846;-74
2024/02/22 08:09:12;;;;;;;1.63;1.53;;;12.00;38.90;;;;;;10445067;28;20225;-73
2024/02/22 08:14:15;;;;;;;1.83;1.73;;;12.00;38.30;;;;;;10451095;28;20248;-73
2024/02/22 08:19:20;;;;;;;1.93;1.83;;;12.00;38.50;;;;;;10445051;28;20235;-73
2024/02/22 08:24:24;;;;;;;1.87;1.70;;;12.00;39.00;;;;;;10446168;28;20236;-73
2024/02/22 08:29:27;;;;;;;2.30;2.10;;;12.00;38.70;;;;;;10445371;28;20306;-74
2024/02/22 08:34:31;;;;;;;4.73;3.50;;;12.00;38.70;;;;;;10443038;28;20232;-73
2024/02/22 08:39:35;;;;;;;4.53;3.70;;;12.00;39.40;;;;;;10443535;28;20255;-74
2024/02/22 08:44:38;;;;;;;3.20;2.90;;;12.10;38.90;;;;;;10444600;28;20253;-74
2024/02/22 08:49:45;;;;;;;3.37;3.07;;;12.00;38.90;;;;;;10442899;28;20239;-74
2024/02/22 08:54:48;;;;;;;3.07;2.87;;;12.10;39.70;;;;;;10445002;28;20656;-74
2024/02/22 08:59:51;;;;;;;2.33;2.13;;;12.10;39.30;;;;;;10441645;28;20711;-75
2024/02/22 09:04:56;;;;;;;2.90;2.70;;;12.10;39.30;;;;;;10443163;28;20252;-74
2024/02/22 09:10:04;;;;;;;2.73;2.40;;;12.00;39.90;;;;;;10439870;28;20229;-74
2024/02/22 09:15:09;;;;;;;2.60;2.40;;;12.00;39.60;;;;;;10437076;28;20287;-74
2024/02/22 09:20:15;;;;;;;2.50;2.30;;;12.10;39.90;;;;;;10437681;28;20343;-74
2024/02/22 09:25:19;;;;;;;2.80;2.60;;;12.00;39.80;;;;;;10437018;28;20229;-75
2024/02/22 09:30:22;;;;;;;3.27;2.97;;;12.10;39.60;;;;;;10443897;28;20267;-75
2024/02/22 09:35:28;;;;;;;2.97;2.70;;;12.10;39.70;;;;;;10437681;28;20253;-75
2024/02/22 09:40:32;;;;;;;3.13;2.83;;;12.10;40.00;;;;;;10435636;28;20316;-76
2024/02/22 09:45:37;;;;;;;3.80;3.40;;;12.10;39.40;;;;;;10439983;28;20245;-75
2024/02/22 09:50:42;;;;;;;3.90;3.40;;;12.20;39.70;;;;;;10438309;28;20234;-76
2024/02/22 09:55:46;;;;;;;3.80;3.50;;;12.20;40.00;;;;;;10439389;28;20244;-75
2024/02/22 10:00:50;;;;;;;4.87;4.20;;;12.20;40.20;;;;;;10435408;28;20244;-76
2024/02/22 10:05:55;;;;;;;4.50;4.10;;;12.20;40.10;;;;;;10433839;28;20218;-75
2024/02/22 10:11:05;;;;;;;4.27;3.87;;;12.20;40.40;;;;;;10430461;28;20227;-76
2024/02/22 10:16:11;;;;;;;3.93;3.63;;;12.30;42.00;;;;;;10441424;28;20270;-76
2024/02/22 10:21:18;;;;;;;5.47;4.30;;;12.30;40.30;;;;;;10441932;28;20580;-74
2024/02/22 10:26:21;;;;;;;5.13;4.20;;;12.40;41.30;;;;;;10433677;28;20279;-74
2024/02/22 10:31:24;;;;;;;4.50;4.10;;;12.40;40.30;;;;;;10437546;28;20236;-74
2024/02/22 10:36:30;;;;;;;4.93;4.37;;;12.50;40.20;;;;;;10435218;28;20727;-74
2024/02/22 10:41:35;;;;;;;5.27;4.60;;;12.50;41.20;;;;;;10432297;28;20237;-75
2024/02/22 10:46:39;;;;;;;4.87;4.37;;;12.60;40.90;;;;;;10437336;28;20303;-74
2024/02/22 10:51:45;;;;;;;5.40;4.90;;;12.60;40.80;;;;;;10436473;28;21074;-75
2024/02/22 10:56:50;;;;;;;5.23;4.73;;;12.70;41.10;;;;;;10435402;28;20231;-75
2024/02/22 11:01:53;;;;;;;5.73;4.53;;;12.70;41.10;;;;;;10440359;28;20225;-75
2024/02/22 11:07:05;;;;;;;4.50;4.10;;;12.80;40.60;;;;;;10444376;28;20248;-75
2024/02/22 11:12:09;;;;;;;4.43;4.03;;;12.70;42.30;;;;;;10440368;28;20336;-74
2024/02/22 11:17:16;;;;;;;5.13;3.97;;;12.70;40.50;;;;;;10443691;28;20225;-74
2024/02/22 11:22:21;;;;;;;4.30;3.90;;;12.70;41.80;;;;;;10442044;28;20224;-74
2024/02/22 11:27:25;;;;;;;4.10;3.70;;;12.70;41.20;;;;;;10443675;28;20232;-74
2024/02/22 11:32:28;;;;;;;4.40;3.97;;;12.70;40.80;;;;;;10443135;28;20229;-74
2024/02/22 11:37:33;;;;;;;4.17;3.80;;;12.70;41.10;;;;;;10444424;28;20261;-74
2024/02/22 11:42:37;;;;;;;4.67;4.00;;;12.70;42.10;;;;;;10439441;28;20228;-74
2024/02/22 11:47:40;;;;;;;3.97;3.53;;;12.80;41.50;;;;;;10444707;28;20240;-74
2024/02/22 11:52:45;;;;;;;3.73;3.43;;;12.80;41.40;;;;;;10442645;28;20637;-74
2024/02/22 11:57:48;;;;;;;4.30;3.90;;;12.80;41.90;;;;;;10439194;28;20279;-74
2024/02/22 12:02:52;;;;;;;4.37;3.97;;;12.90;41.50;;;;;;10441255;28;20312;-75
2024/02/22 12:07:56;;;;;;;4.30;3.80;;;13.00;41.80;;;;;;10441311;28;20314;-76
2024/02/22 12:13:02;;;;;;;6.93;6.23;;;13.10;42.60;;;;;;10446517;28;20235;-74
2024/02/22 12:18:06;;;;;;;5.57;5.07;;;13.10;41.80;;;;;;10435903;28;20271;-74
2024/02/22 12:23:12;;;;;;;5.53;4.97;;;13.20;41.80;;;;;;10444671;28;20225;-75
2024/02/22 12:28:15;;;;;;;3.93;3.53;;;13.30;42.40;;;;;;10439970;28;20228;-74
2024/02/22 12:33:23;;;;;;;4.10;3.77;;;13.30;41.80;;;;;;10441730;28;20248;-74
2024/02/22 12:38:28;;;;;;;4.27;3.87;;;13.40;42.90;;;;;;10436340;28;20320;-74
2024/02/22 12:43:32;;;;;;;4.00;3.60;;;13.40;42.20;;;;;;10432861;28;20229;-74
2024/02/22 12:48:35;;;;;;;3.50;3.20;;;13.50;41.90;;;;;;10439983;28;20730;-75
2024/02/22 12:53:40;;;;;;;4.40;4.03;;;13.60;41.90;;;;;;10431397;28;20233;-75
2024/02/22 12:58:43;;;;;;;3.97;3.57;;;13.60;43.10;;;;;;10444998;28;20239;-75
2024/02/22 13:03:47;;;;;;;5.77;4.40;;;13.60;42.10;;;;;;10434204;28;20600;-76
2024/02/22 13:08:53;;;;;;;4.57;4.17;;;13.70;42.10;;;;;;10436044;28;20233;-75
2024/02/22 13:13:56;;;;;;;6.37;4.33;;;13.80;42.60;;;;;;10435316;28;20241;-75
2024/02/22 13:18:59;;;;;;;4.97;4.43;;;13.90;42.10;;;;;;10436555;28;20236;-75
2024/02/22 13:24:04;;;;;;;4.60;4.10;;;13.90;41.90;;;;;;10432851;28;20221;-74
2024/02/22 13:29:08;;;;;;;4.37;3.97;;;14.00;42.70;;;;;;10438139;28;20283;-74
2024/02/22 13:34:11;;;;;;;4.33;3.93;;;14.10;41.90;;;;;;10437446;28;20309;-75
2024/02/22 13:39:16;;;;;;;4.23;3.83;;;14.10;41.80;;;;;;10435771;28;20794;-75
2024/02/22 13:44:20;;;;;;;2.90;2.70;;;14.20;42.00;;;;;;10437628;28;20361;-75
2024/02/22 13:49:32;;;;;;;2.80;2.60;;;14.30;41.30;;;;;;10439799;28;20229;-75
2024/02/22 13:54:36;;;;;;;3.77;2.43;;;14.40;41.30;;;;;;10435259;28;20316;-76
2024/02/22 13:59:40;;;;;;;2.00;1.90;;;14.50;41.10;;;;;;10442855;28;20224;-77
2024/02/22 14:04:44;;;;;;;2.17;1.97;;;14.50;40.90;;;;;;10438521;28;20233;-74
2024/02/22 14:09:49;;;;;;;2.73;1.80;;;14.50;40.90;;;;;;10421709;28;20230;-76
2024/02/22 14:14:53;;;;;;;1.67;1.57;;;14.50;41.00;;;;;;10426824;28;20224;-76
2024/02/22 14:19:56;;;;;;;1.80;1.30;;;14.50;40.60;;;;;;10425957;28;20233;-76
2024/02/22 14:25:00;;;;;;;1.57;1.10;;;14.60;40.60;;;;;;10425972;28;20221;-75
2024/02/22 14:30:05;;;;;;;1.10;1.10;;;14.60;40.60;;;;;;10420420;28;20330;-76
2024/02/22 14:35:08;;;;;;;1.30;1.20;;;14.50;40.40;;;;;;10423826;28;20225;-76
2024/02/22 14:40:13;;;;;;;2.17;1.97;;;14.50;40.50;;;;;;10420492;28;20960;-75
2024/02/22 14:45:18;;;;;;;1.40;1.30;;;14.50;40.70;;;;;;10422880;28;20227;-76
2024/02/22 14:50:23;;;;;;;2.10;1.40;;;14.60;40.60;;;;;;10426039;28;20275;-76
2024/02/22 14:55:28;;;;;;;2.10;1.77;;;14.60;40.50;;;;;;10424666;28;20221;-78
2024/02/22 15:00:32;;;;;;;1.30;1.20;;;14.60;40.60;;;;;;10421632;28;20229;-75
2024/02/22 15:05:35;;;;;;;1.40;1.30;;;14.60;40.40;;;;;;10419890;28;20729;-76
2024/02/22 15:10:40;;;;;;;1.10;1.10;;;14.60;40.30;;;;;;10425048;28;20745;-76
2024/02/22 15:15:43;;;;;;;1.30;1.20;;;14.60;40.40;;;;;;10426040;28;20263;-76
2024/02/22 15:20:48;;;;;;;1.00;1.00;;;14.60;40.20;;;;;;10419196;28;20227;-76
2024/02/22 15:25:52;;;;;;;1.10;1.10;;;14.60;40.30;;;;;;10421850;28;20307;-76
2024/02/22 15:30:55;;;;;;;0.80;0.80;;;14.60;40.60;;;;;;10420452;28;20225;-75
2024/02/22 15:36:02;;;;;;;0.90;0.90;;;14.60;40.40;;;;;;10430292;28;20316;-75
2024/02/22 15:41:06;;;;;;;1.30;1.20;;;14.60;40.60;;;;;;10430169;28;20613;-75
2024/02/22 15:46:10;;;;;;;1.60;1.50;;;14.50;40.90;;;;;;10427065;28;20313;-75
2024/02/22 15:51:13;;;;;;;2.30;2.10;;;14.50;41.00;;;;;;10428625;28;21140;-76
2024/02/22 15:56:24;;;;;;;2.00;1.80;;;14.40;40.80;;;;;;10428742;28;20221;-75
2024/02/22 16:01:28;;;;;;;1.40;1.30;;;14.40;41.20;;;;;;10431945;28;20283;-75
2024/02/22 16:06:32;;;;;;;2.50;1.63;;;14.40;40.90;;;;;;10434254;28;20337;-75
2024/02/22 16:11:37;;;;;;;1.80;1.70;;;14.30;41.70;;;;;;10434172;28;20228;-75
2024/02/22 16:16:40;;;;;;;3.10;2.80;;;14.20;41.60;;;;;;10433562;28;20220;-75
2024/02/22 16:21:44;;;;;;;3.20;2.90;;;14.10;41.50;;;;;;10433862;28;20615;-75
2024/02/22 16:26:48;;;;;;;2.17;2.07;;;14.00;41.60;;;;;;10432971;28;20343;-75
2024/02/22 16:31:51;;;;;;;2.70;2.50;;;13.90;42.20;;;;;;10434501;28;21176;-76
2024/02/22 16:36:55;;;;;;;3.13;2.93;;;13.90;41.90;;;;;;10437604;28;20747;-75
2024/02/22 16:41:59;;;;;;;7.30;4.27;;;13.80;42.00;;;;;;10437492;28;20229;-77
2024/02/22 16:47:03;;;;;;;2.10;1.90;;;13.80;42.70;;;;;;10434903;28;20319;-75
2024/02/22 16:52:06;;;;;;;2.93;2.73;;;13.70;42.10;;;;;;10433694;28;20228;-75
2024/02/22 16:57:11;;;;;;;2.60;2.40;;;13.70;42.20;;;;;;10432855;28;20249;-75
2024/02/22 17:02:16;;;;;;;2.00;1.90;;;13.70;42.90;;;;;;10435014;28;20324;-75
2024/02/22 17:07:20;;;;;;;1.63;1.53;;;13.70;42.40;;;;;;10430818;28;20316;-75
2024/02/22 17:12:24;;;;;;;1.50;1.40;;;13.70;42.40;;;;;;10431509;28;20711;-75
2024/02/22 17:17:34;;;;;;;1.63;1.53;;;13.60;43.10;;;;;;10433763;28;20732;-75
2024/02/22 17:22:37;;;;;;;4.23;3.07;;;13.50;42.60;;;;;;10435056;28;20619;-75
2024/02/22 17:27:42;;;;;;;2.10;2.00;;;13.50;42.80;;;;;;10435423;28;20332;-75
2024/02/22 17:32:46;;;;;;;2.27;2.07;;;13.40;42.90;;;;;;10438876;28;20232;-75
2024/02/22 17:37:49;;;;;;;2.43;1.80;;;13.40;42.90;;;;;;10442471;28;20276;-76
2024/02/22 17:42:54;;;;;;;2.07;1.93;;;13.30;42.80;;;;;;10440797;28;20345;-75
2024/02/22 17:47:57;;;;;;;2.37;2.23;;;13.30;43.20;;;;;;10429208;28;20253;-76
2024/02/22 17:53:02;;;;;;;1.70;1.60;;;13.20;42.70;;;;;;10446148;28;20221;-75
2024/02/22 17:58:07;;;;;;;1.97;1.77;;;13.20;43.00;;;;;;10446522;28;20675;-75
2024/02/22 18:03:10;;;;;;;1.87;1.70;;;13.10;43.70;;;;;;10445884;28;20304;-75
2024/02/22 18:08:13;;;;;;;2.30;1.30;;;13.10;43.60;;;;;;10451248;28;20335;-74
2024/02/22 18:13:19;;;;;;;2.10;1.70;;;13.00;43.40;;;;;;10461090;28;20220;-74
2024/02/22 18:18:22;;;;;;;1.80;1.70;;;13.00;44.10;;;;;;10445475;28;20305;-75
2024/02/22 18:23:25;;;;;;;1.90;1.80;;;13.00;43.60;;;;;;10445967;28;20576;-75
2024/02/22 18:28:30;;;;;;;1.53;1.40;;;13.00;43.70;;;;;;10453207;28;20241;-74
2024/02/22 18:33:33;;;;;;;1.73;1.63;;;13.00;44.20;;;;;;10446049;28;20236;-74
2024/02/22 18:38:40;;;;;;;3.27;2.20;;;13.00;43.70;;;;;;10445857;28;20233;-75
2024/02/22 18:43:45;;;;;;;1.80;1.70;;;13.00;43.70;;;;;;10440709;28;20919;-74
2024/02/22 18:48:48;;;;;;;2.77;1.70;;;13.00;44.20;;;;;;10445612;28;20229;-74
2024/02/22 18:53:52;;;;;;;2.10;1.90;;;13.10;43.90;;;;;;10444825;28;20232;-74
2024/02/22 18:58:59;;;;;;;1.90;1.80;;;13.10;43.90;;;;;;10438703;28;20317;-74
2024/02/22 19:04:03;;;;;;;1.90;1.80;;;13.00;44.50;;;;;;10443009;28;20643;-76
2024/02/22 19:09:06;;;;;;;2.10;2.00;;;13.00;43.90;;;;;;10444509;28;20235;-76
2024/02/22 19:14:10;;;;;;;2.70;2.50;;;13.00;44.00;;;;;;10441039;28;20795;-75
2024/02/22 19:19:14;;;;;;;3.70;3.40;;;13.00;44.50;;;;;;10437165;28;20727;-76
2024/02/22 19:24:17;;;;;;;2.10;2.00;;;13.00;44.00;;;;;;10439070;28;20232;-76
2024/02/22 19:29:21;;;;;;;2.70;2.50;;;13.10;44.00;;;;;;10442768;28;20231;-75
2024/02/22 19:34:25;;;;;;;2.73;2.50;;;13.10;44.40;;;;;;10445665;28;20236;-75
2024/02/22 19:39:29;;;;;;;2.80;2.60;;;13.20;43.90;;;;;;10441795;28;20284;-76
2024/02/22 19:44:33;;;;;;;3.07;2.87;;;13.20;43.80;;;;;;10445830;28;20243;-76
2024/02/22 19:49:37;;;;;;;4.00;3.60;;;13.30;44.10;;;;;;10444588;28;20735;-78
2024/02/22 19:54:40;;;;;;;3.40;3.10;;;13.40;43.60;;;;;;10438472;28;20243;-79
2024/02/22 19:59:45;;;;;;;2.97;2.67;;;13.40;43.60;;;;;;10440007;28;20295;-78
2024/02/22 20:04:50;;;;;;;2.70;2.50;;;13.40;43.80;;;;;;10438688;28;20313;-78
2024/02/22 20:09:54;;;;;;;2.37;2.20;;;13.40;43.30;;;;;;10436818;28;20372;-78
2024/02/22 20:14:58;;;;;;;4.10;3.47;;;13.40;43.30;;;;;;10438815;28;20292;-78
2024/02/22 20:20:02;;;;;;;5.10;2.67;;;13.40;43.90;;;;;;10437772;28;20229;-78
2024/02/22 20:25:06;;;;;;;2.17;1.90;;;13.30;43.50;;;;;;10440711;28;20231;-73
2024/02/22 20:30:12;;;;;;;1.67;1.57;;;13.30;44.00;;;;;;10440586;28;20264;-73
2024/02/22 20:35:15;;;;;;;1.80;1.70;;;13.20;44.40;;;;;;10439550;28;20278;-73
2024/02/22 20:40:28;;;;;;;2.37;1.80;;;13.20;44.30;;;;;;10439782;28;20225;-74
2024/02/22 20:45:34;;;;;;;1.60;1.50;;;13.20;44.40;;;;;;10445313;28;20287;-75
2024/02/22 20:50:37;;;;;;;1.70;1.60;;;13.10;44.70;;;;;;10444837;28;20242;-75
2024/02/22 20:55:40;;;;;;;2.40;1.90;;;13.20;44.50;;;;;;10439121;28;20233;-75
2024/02/22 21:00:46;;;;;;;2.53;1.93;;;13.10;44.60;;;;;;10439760;28;20233;-75
2024/02/22 21:05:49;;;;;;;2.50;2.30;;;13.10;45.50;;;;;;10441052;28;20233;-75
2024/02/22 21:10:57;;;;;;;2.50;2.30;;;13.10;45.10;;;;;;10445557;28;20235;-75
2024/02/22 21:16:02;;;;;;;2.40;2.20;;;13.10;45.10;;;;;;10443664;28;20263;-73
2024/02/22 21:21:05;;;;;;;2.70;2.50;;;13.10;45.80;;;;;;10442777;28;20703;-74
2024/02/22 21:26:09;;;;;;;2.70;2.50;;;13.10;45.50;;;;;;10445327;28;20283;-74
2024/02/22 21:31:15;;;;;;;2.60;2.40;;;13.10;45.40;;;;;;10445892;28;20228;-74
2024/02/22 21:36:18;;;;;;;3.50;3.20;;;13.10;46.00;;;;;;10446107;28;20237;-74
2024/02/22 21:41:22;;;;;;;3.60;3.30;;;13.10;45.60;;;;;;10444553;28;20244;-74
2024/02/22 21:46:27;;;;;;;4.00;3.70;;;13.10;45.60;;;;;;10445320;28;20240;-74
2024/02/22 21:51:30;;;;;;;4.53;4.13;;;13.10;46.00;;;;;;10443509;28;20761;-74
2024/02/22 21:56:33;;;;;;;4.77;4.37;;;13.10;45.50;;;;;;10445342;28;20232;-74
2024/02/22 22:01:38;;;;;;;5.10;4.60;;;13.10;45.30;;;;;;10444516;28;20261;-74
2024/02/22 22:06:41;;;;;;;4.63;4.33;;;13.10;45.80;;;;;;10440218;28;20471;-74
2024/02/22 22:11:44;;;;;;;6.00;5.40;;;13.10;45.30;;;;;;10443261;28;20243;-74
2024/02/22 22:16:49;;;;;;;6.10;5.50;;;13.10;45.20;;;;;;10438889;28;20257;-74
2024/02/22 22:21:52;;;;;;;5.03;4.07;;;13.10;45.60;;;;;;10444354;28;20224;-73
2024/02/22 22:26:56;;;;;;;4.03;3.73;;;13.10;45.10;;;;;;10444054;28;20723;-74
2024/02/22 22:32:00;;;;;;;3.57;3.30;;;13.20;45.10;;;;;;10444178;28;20563;-74
2024/02/22 22:37:05;;;;;;;3.80;3.50;;;13.10;46.20;;;;;;10441587;28;20240;-74
2024/02/22 22:42:08;;;;;;;3.30;3.10;;;13.20;46.10;;;;;;10444293;28;20283;-74
2024/02/22 22:47:12;;;;;;;4.13;3.73;;;13.20;45.30;;;;;;10444219;28;20267;-74
2024/02/22 22:52:15;;;;;;;3.70;3.40;;;13.20;45.60;;;;;;10453385;28;20233;-74
2024/02/22 22:57:19;;;;;;;4.27;3.87;;;13.20;45.30;;;;;;10441141;28;20240;-74
2024/02/22 23:02:23;;;;;;;3.00;2.80;;;13.20;45.30;;;;;;10450858;28;20233;-74
2024/02/22 23:07:26;;;;;;;2.90;2.70;;;13.20;45.70;;;;;;10448338;28;20573;-73
2024/02/22 23:12:30;;;;;;;1.60;1.50;;;13.20;45.50;;;;;;10453145;28;20236;-74
2024/02/22 23:17:34;;;;;;;0.63;0.63;;;13.10;45.30;;;;;;10451493;28;20236;-74
2024/02/22 23:22:39;;;;;;;0.53;0.53;;;13.10;44.90;;;;;;10450884;28;20304;-74
2024/02/22 23:27:42;;;;;;;0.60;0.60;;;13.20;44.40;;;;;;10446365;28;20306;-74
2024/02/22 23:32:46;;;;;;;0.50;0.50;;;13.20;44.20;;;;;;10449342;28;20239;-74
2024/02/22 23:37:50;;;;;;;0.63;0.50;;;13.20;43.80;;;;;;10449108;28;20233;-74
2024/02/22 23:42:53;;;;;;;0.40;0.40;;;13.20;43.60;;;;;;10443543;28;20229;-74
2024/02/22 23:47:57;;;;;;;0.50;0.50;;;13.20;43.60;;;;;;10449181;28;20271;-74
2024/02/22 23:53:01;;;;;;;0.90;0.70;;;13.20;43.80;;;;;;10450046;28;20240;-73
2024/02/22 23:58:04;;;;;;;0.50;0.50;;;13.10;43.60;;;;;;10449191;28;20278;-74
